Nearby METAR Reports

 

KPDX - Portland, Oregon, USA
Distance from station: NE 9mi, 14km
Updated: Fri, 24-Jan-2020 1:53pm PST
Light rain, Overcast
Light rain, Overcast
 Wind from SSW
Wind: SSW 12 mph , 19 km/h
Temperature: 55°F , 13°C
Dew Point: 46°F , 8°C
Humidity: 72%
Barometer: 30.02 inHg , 1016.6 hPa
Summary: Light rain
Clouds: Overcast
Visibility: 10 miles , 16 km
Cloud details: Mostly cloudy 3500 ft
Mostly cloudy 4400 ft
Overcast 5500 ft
2020/01/24 21:53 KPDX 242153Z 21010KT 10SM -RA BKN035 BKN044 OVC055 13/08 A3002 RMK AO2 RAB35 SLP167 P0000 T01280078
KTMK - Tillamook, Oregon, USA
Distance from station: N 9mi, 14km
Updated: Fri, 24-Jan-2020 2:15pm PST
Light rain, Overcast
Light rain, Overcast
 Wind from S
Wind: S 15 mph , 24 km/h, Gust: 23 mph , 37 km/h
Temperature: 52°F , 11°C
Dew Point: 50°F , 10°C
Humidity: 94%
Barometer: 30.04 inHg , 1017.3 hPa
Summary: Light rain
Clouds: Overcast
Visibility: 5 miles , 8 km
Cloud details: Partly cloudy 1400 ft
Mostly cloudy 2000 ft
Overcast 4200 ft
2020/01/24 22:15 KTMK 242215Z AUTO 19013G20KT 5SM -RA SCT014 BKN020 OVC042 11/10 A3004 RMK AO2
 
KSLE - Salem, Oregon, USA
Distance from station: NNW 14mi, 23km
Updated: Fri, 24-Jan-2020 1:56pm PST
Overcast
Overcast
 Wind from S
Wind: S 9 mph , 15 km/h
Temperature: 54°F , 12°C
Dew Point: 45°F , 7°C
Humidity: 72%
Barometer: 30.03 inHg , 1016.9 hPa
Clouds: Overcast
Visibility: 10 miles , 16 km
Cloud details: Mostly cloudy 3200 ft
Overcast 4000 ft
2020/01/24 21:56 KSLE 242156Z 18008KT 10SM BKN032 OVC040 12/07 A3003 RMK AO2 SLP170 T01220072
KEUG - Eugene, Oregon, USA
Distance from station: ENE 12mi, 19km
Updated: Fri, 24-Jan-2020 1:54pm PST
Overcast
Overcast
 Wind from S
Wind: S 12 mph , 19 km/h
Temperature: 55°F , 13°C
Dew Point: 46°F , 8°C
Humidity: 72%
Barometer: 30.06 inHg , 1017.9 hPa
Clouds: Overcast
Visibility: 10 miles , 16 km
Cloud details: Partly cloudy 3400 ft
Mostly cloudy 4400 ft
Overcast 20000 ft
2020/01/24 21:54 KEUG 242154Z 19010KT 10SM SCT034 BKN044 OVC200 13/08 A3006 RMK AO2 SLP180 T01280083
 
KONP - Newport, Oregon, USA
Distance from station: NNW 31mi, 50km
Updated: Fri, 24-Jan-2020 2:15pm PST
Mist, Overcast
Mist, Overcast
 Wind from S
Wind: S 21 mph , 33 km/h, Gust: 29 mph , 46 km/h
Temperature: 52°F , 11°C
Dew Point: 50°F , 10°C
Humidity: 94%
Barometer: 30.06 inHg , 1017.9 hPa
Summary: Mist
Clouds: Overcast
Visibility: 4 miles , 6 km
Cloud details: Overcast 800 ft
2020/01/24 22:15 KONP 242215Z AUTO 19018G25KT 4SM BR OVC008 11/10 A3006 RMK AO2
K6S2 - Florence, Oregon, USA
Distance from station: NW 21mi, 34km
Updated: Fri, 24-Jan-2020 2:35pm PST
Mist, Overcast
Mist, Overcast
 Wind from SSW
Wind: SSW 9 mph , 15 km/h
Temperature: 54°F , 12°C
Dew Point: 50°F , 10°C
Humidity: 88%
Barometer: 30.06 inHg , 1017.9 hPa
Summary: Mist
Clouds: Overcast
Visibility: 5 miles , 8 km
Cloud details: Mostly cloudy 900 ft
Mostly cloudy 1300 ft
Overcast 2500 ft
2020/01/24 22:35 K6S2 242235Z AUTO 20008KT 5SM BR BKN009 BKN013 OVC025 12/10 A3006 RMK AO2 T01210103
 
KDLS - The Dalles, Oregon, USA
Distance from station: NW 30mi, 49km
Updated: Fri, 24-Jan-2020 2:30pm PST
Overcast
Overcast
 Wind from calm
Wind: Calm
Temperature: 46°F , 8°C
Dew Point: 45°F , 7°C
Humidity: 93%
Barometer: 30.01 inHg , 1016.3 hPa
Clouds: Overcast
Visibility: 7 miles , 11 km
Cloud details: Partly cloudy 300 ft
Overcast 6500 ft
2020/01/24 22:30 KDLS 242230Z AUTO 00000KT 7SM SCT003 OVC065 08/07 A3001 RMK AO2 T00780067
KRDM - Redmond, Oregon, USA
Distance from station: ESE 27mi, 43km
Updated: Fri, 24-Jan-2020 1:56pm PST
Clear
Clear
 Wind from SSW
Wind: SSW 10 mph , 17 km/h, Gust: 20 mph , 31 km/h
Temperature: 48°F , 9°C
Wind Chill: 44°F , 7°C
Dew Point: 34°F , 1°C
Humidity: 58%
Barometer: 30.01 inHg , 1016.3 hPa
Clouds: Clear
Visibility: 10 miles , 16 km
2020/01/24 21:56 KRDM 242156Z 20009G17KT 10SM CLR 09/01 A3001 RMK AO2 SLP163 T00940006
 
KPDT - Pendleton, Oregon, USA
Distance from station: SSE 27mi, 44km
Updated: Fri, 24-Jan-2020 1:53pm PST
Partly cloudy
Partly cloudy
 Wind from W
Wind: W 14 mph , 22 km/h
Temperature: 54°F , 12°C
Dew Point: 37°F , 3°C
Humidity: 54%
Barometer: 30.00 inHg , 1015.9 hPa
Clouds: Partly cloudy
Visibility: 10 miles , 16 km
Cloud details: Partly cloudy 5000 ft
Partly cloudy 6500 ft
2020/01/24 21:53 KPDT 242153Z 27012KT 10SM SCT050 SCT065 12/03 A3000 RMK AO2 SLP157 T01220033
KGCD - John Day, Oregon, USA
Distance from station: WNW 31mi, 50km
Updated: Fri, 24-Jan-2020 2:15pm PST
Partly cloudy
Partly cloudy
 Wind from calm
Wind: Calm
Temperature: 46°F , 8°C
Dew Point: 37°F , 3°C
Humidity: 71%
Barometer: 30.05 inHg , 1017.6 hPa
Clouds: Partly cloudy
Visibility: 10 miles , 16 km
Cloud details: Partly cloudy 3900 ft
2020/01/24 22:15 KGCD 242215Z AUTO 00000KT 10SM SCT039 08/03 A3005 RMK AO2 T00820027
 
KAST - Astoria, Oregon, USA
Distance from station: N 28mi, 44km
Updated: Fri, 24-Jan-2020 1:55pm PST
Overcast
Overcast
 Wind from SSW
Wind: SSW 15 mph , 24 km/h, Gust: 23 mph , 37 km/h
Temperature: 52°F , 11°C
Dew Point: 48°F , 9°C
Humidity: 88%
Barometer: 29.99 inHg , 1015.6 hPa
Clouds: Overcast
Visibility: 8 miles , 13 km
Cloud details: Mostly cloudy 1100 ft
Overcast 4000 ft
2020/01/24 21:55 KAST 242155Z AUTO 21013G20KT 8SM BKN011 OVC040 11/09 A2999 RMK AO2 RAB15E27 SLP155 P0000 T01110094
KSEA - Seattle, Washington, USA
Distance from station: NNE 31mi, 51km
Updated: Fri, 24-Jan-2020 2:16pm PST
Mostly cloudy
Mostly cloudy
 Wind from SSW
Wind: SSW 13 mph , 20 km/h
Temperature: 52°F , 11°C
Dew Point: 46°F , 8°C
Humidity: 82%
Barometer: 29.96 inHg , 1014.6 hPa
Clouds: Mostly cloudy
Visibility: 10 miles , 16 km
Cloud details: Few Clouds 1900 ft
Mostly cloudy 3900 ft
Mostly cloudy 7500 ft
2020/01/24 22:16 KSEA 242216Z 21011KT 10SM FEW019 BKN039 BKN075 11/08 A2996 RMK AO2 RAE10 P0002 T01060083